PWSweather.com
Personal Weather Stations
Station Observations
ERMELO
Centre, ErmeloNL

CentreErmeloNL

Lat: 52.2986655, Lon: 5.6296194

Elevation: 41

Station Type: Oregon WMR200

www.meteoermelo.nl

High Low Average
Temperature 57.0°F13.9°C 38.1°F3.4°C 46.8°F8.2°C
Dew Point 33.4°F0.8°C 13.5°F-10.3°C 21.2°F-6.0°C
Winds 6.2 mph 10.0 kmh Calm Calm 3.0 mph S4.8 kmh S
Wind Gusts 13.2 mph21.2 kmh -- 5.0 mph8.0 kmh
Humidity 71% 28% 37%
Pressure 30.09 in1019.0 mb 29.92 in1013.2 mb -
Precipitation 0.00 in0.0 mm - -
Hour Temp Dew Point Humidity Winds Wind Gusts Pressure Precip Precip Rate Daily Precip Total
12:00 AM 46.4°F8.0°C 15.0°F-9.4°C 28% 3.4 mph SSW5.5 kmh SSW 6.0 mph9.7 kmh 30.07 in1018.3 mb 0.00 in0.0 mm 0.00 in0.0 mm 0.00 in0.0 mm
12:15 AM 46.4°F8.0°C 15.0°F-9.4°C 28% 3.4 mph S5.5 kmh S 5.8 mph9.3 kmh 30.07 in1018.3 mb 0.00 in0.0 mm 0.00 in0.0 mm 0.00 in0.0 mm
12:30 AM 46.0°F7.8°C 14.7°F-9.6°C 28% 3.8 mph S6.1 kmh S 5.8 mph9.3 kmh 30.07 in1018.3 mb 0.00 in0.0 mm 0.00 in0.0 mm 0.00 in0.0 mm
12:45 AM 46.4°F8.0°C 15.8°F-9.0°C 29% 3.5 mph S5.6 kmh S 5.8 mph9.3 kmh 30.07 in1018.3 mb 0.00 in0.0 mm 0.00 in0.0 mm 0.00 in0.0 mm
01:00 AM 45.7°F7.6°C 15.2°F-9.3°C 29% 3.1 mph S5.0 kmh S 5.4 mph8.7 kmh 30.07 in1018.3 mb 0.00 in0.0 mm 0.00 in0.0 mm 0.00 in0.0 mm
01:15 AM 44.8°F7.1°C 14.4°F-9.8°C 29% 1.9 mph S3.1 kmh S 3.8 mph6.1 kmh 30.07 in1018.3 mb 0.00 in0.0 mm 0.00 in0.0 mm 0.00 in0.0 mm
01:30 AM 44.1°F6.7°C 13.8°F-10.1°C 29% 1.8 mph SSE2.9 kmh SSE 4.3 mph6.9 kmh 30.04 in1017.3 mb 0.00 in0.0 mm 0.00 in0.0 mm 0.00 in0.0 mm
01:45 AM 43.7°F6.5°C 14.2°F-9.9°C 30% 1.6 mph S2.6 kmh S 4.3 mph6.9 kmh 30.04 in1017.3 mb 0.00 in0.0 mm 0.00 in0.0 mm 0.00 in0.0 mm
02:00 AM 42.6°F5.9°C 14.0°F-10.0°C 31% 0.8 mph S1.3 kmh S 3.1 mph5.0 kmh 30.07 in1018.3 mb 0.00 in0.0 mm 0.00 in0.0 mm 0.00 in0.0 mm
02:15 AM 42.1°F5.6°C 14.3°F-9.8°C 32% 1.3 mph SSE2.1 kmh SSE 4.0 mph6.4 kmh 30.07 in1018.3 mb 0.00 in0.0 mm 0.00 in0.0 mm 0.00 in0.0 mm
02:30 AM 41.2°F5.1°C 13.5°F-10.3°C 32% 0.9 mph SSE1.4 kmh SSE 2.9 mph4.7 kmh 30.04 in1017.3 mb 0.00 in0.0 mm 0.00 in0.0 mm 0.00 in0.0 mm
02:45 AM 41.5°F5.3°C 16.5°F-8.6°C 36% 2.0 mph SSE3.2 kmh SSE 4.0 mph6.4 kmh 30.09 in1019.0 mb 0.00 in0.0 mm 0.00 in0.0 mm 0.00 in0.0 mm
03:00 AM 41.7°F5.4°C 16.7°F-8.5°C 36% 2.3 mph S3.7 kmh S 4.3 mph6.9 kmh 30.07 in1018.3 mb 0.00 in0.0 mm 0.00 in0.0 mm 0.00 in0.0 mm
03:15 AM 42.6°F5.9°C 18.8°F-7.3°C 38% 1.7 mph SSE2.7 kmh SSE 3.6 mph5.8 kmh 30.07 in1018.3 mb 0.00 in0.0 mm 0.00 in0.0 mm 0.00 in0.0 mm
03:30 AM 42.6°F5.9°C 18.1°F-7.7°C 37% 1.5 mph SSE2.4 kmh SSE 3.1 mph5.0 kmh 30.07 in1018.3 mb 0.00 in0.0 mm 0.00 in0.0 mm 0.00 in0.0 mm
03:45 AM 42.3°F5.7°C 17.8°F-7.9°C 37% 1.9 mph SSE3.1 kmh SSE 4.9 mph7.9 kmh 30.07 in1018.3 mb 0.00 in0.0 mm 0.00 in0.0 mm 0.00 in0.0 mm
04:00 AM 42.1°F5.6°C 17.6°F-8.0°C 37% 2.0 mph SSE3.2 kmh SSE 4.3 mph6.9 kmh 30.07 in1018.3 mb 0.00 in0.0 mm 0.00 in0.0 mm 0.00 in0.0 mm
04:15 AM 42.3°F5.7°C 17.2°F-8.2°C 36% 2.8 mph SSE4.5 kmh SSE 7.2 mph11.6 kmh 30.07 in1018.3 mb 0.00 in0.0 mm 0.00 in0.0 mm 0.00 in0.0 mm
04:30 AM 41.9°F5.5°C 16.9°F-8.4°C 36% 2.5 mph S4.0 kmh S 7.6 mph12.2 kmh 30.07 in1018.3 mb 0.00 in0.0 mm 0.00 in0.0 mm 0.00 in0.0 mm
04:45 AM 41.7°F5.4°C 16.7°F-8.5°C 36% 1.7 mph SSE2.7 kmh SSE 3.6 mph5.8 kmh 30.04 in1017.3 mb 0.00 in0.0 mm 0.00 in0.0 mm 0.00 in0.0 mm
05:00 AM 40.3°F4.6°C 15.4°F-9.2°C 36% 0.4 mph SE0.6 kmh SE 2.5 mph4.0 kmh 30.07 in1018.3 mb 0.00 in0.0 mm 0.00 in0.0 mm 0.00 in0.0 mm
05:15 AM 39.0°F3.9°C 14.9°F-9.5°C 37% 0.2 mph SE0.3 kmh SE 1.1 mph1.8 kmh 30.07 in1018.3 mb 0.00 in0.0 mm 0.00 in0.0 mm 0.00 in0.0 mm
05:30 AM 38.1°F3.4°C 15.3°F-9.3°C 39% 1.3 mph SSE2.1 kmh SSE 3.6 mph5.8 kmh 30.07 in1018.3 mb 0.00 in0.0 mm 0.00 in0.0 mm 0.00 in0.0 mm
05:45 AM 39.7°F4.3°C 17.4°F-8.1°C 40% 2.5 mph SSE4.0 kmh SSE 5.4 mph8.7 kmh 30.07 in1018.3 mb 0.00 in0.0 mm 0.00 in0.0 mm 0.00 in0.0 mm
06:00 AM 40.5°F4.7°C 17.4°F-8.1°C 39% 2.2 mph SSE3.5 kmh SSE 4.3 mph6.9 kmh 30.04 in1017.3 mb 0.00 in0.0 mm 0.00 in0.0 mm 0.00 in0.0 mm
06:15 AM 40.5°F4.7°C 17.4°F-8.1°C 39% 1.7 mph SSE2.7 kmh SSE 3.8 mph6.1 kmh 30.07 in1018.3 mb 0.00 in0.0 mm 0.00 in0.0 mm 0.00 in0.0 mm
06:30 AM 40.3°F4.6°C 17.3°F-8.2°C 39% 1.6 mph SSE2.6 kmh SSE 4.3 mph6.9 kmh 30.07 in1018.3 mb 0.00 in0.0 mm 0.00 in0.0 mm 0.00 in0.0 mm
06:45 AM 40.5°F4.7°C 17.4°F-8.1°C 39% 2.4 mph SSE3.9 kmh SSE 5.8 mph9.3 kmh 30.04 in1017.3 mb 0.00 in0.0 mm 0.00 in0.0 mm 0.00 in0.0 mm
07:00 AM 41.2°F5.1°C 17.5°F-8.1°C 38% 4.0 mph SSE6.4 kmh SSE 6.5 mph10.5 kmh 30.04 in1017.3 mb 0.00 in0.0 mm 0.00 in0.0 mm 0.00 in0.0 mm
07:15 AM 41.0°F5.0°C 17.3°F-8.2°C 38% 2.7 mph SSE4.3 kmh SSE 4.5 mph7.2 kmh 30.04 in1017.3 mb 0.00 in0.0 mm 0.00 in0.0 mm 0.00 in0.0 mm
07:30 AM 41.2°F5.1°C 17.5°F-8.1°C 38% 3.1 mph SSE5.0 kmh SSE 6.5 mph10.5 kmh 30.01 in1016.3 mb 0.00 in0.0 mm 0.00 in0.0 mm 0.00 in0.0 mm
07:45 AM 40.3°F4.6°C 16.7°F-8.5°C 38% 2.3 mph SSE3.7 kmh SSE 5.6 mph9.0 kmh 30.04 in1017.3 mb 0.00 in0.0 mm 0.00 in0.0 mm 0.00 in0.0 mm
08:00 AM 40.3°F4.6°C 16.7°F-8.5°C 38% 2.7 mph S4.3 kmh S 6.5 mph10.5 kmh 30.01 in1016.3 mb 0.00 in0.0 mm 0.00 in0.0 mm 0.00 in0.0 mm
08:15 AM 39.9°F4.4°C 16.9°F-8.4°C 39% 2.9 mph S4.7 kmh S 6.0 mph9.7 kmh 30.04 in1017.3 mb 0.00 in0.0 mm 0.00 in0.0 mm 0.00 in0.0 mm
08:30 AM 41.2°F5.1°C 17.5°F-8.1°C 38% 3.6 mph S5.8 kmh S 6.3 mph10.1 kmh 30.04 in1017.3 mb 0.00 in0.0 mm 0.00 in0.0 mm 0.00 in0.0 mm
08:45 AM 41.9°F5.5°C 17.5°F-8.1°C 37% 4.1 mph S6.6 kmh S 7.6 mph12.2 kmh 30.04 in1017.3 mb 0.00 in0.0 mm 0.00 in0.0 mm 0.00 in0.0 mm
09:00 AM 42.4°F5.8°C 17.3°F-8.2°C 36% 3.9 mph S6.3 kmh S 7.2 mph11.6 kmh 30.01 in1016.3 mb 0.00 in0.0 mm 0.00 in0.0 mm 0.00 in0.0 mm
09:15 AM 43.0°F6.1°C 17.8°F-7.9°C 36% 3.6 mph S5.8 kmh S 6.0 mph9.7 kmh 30.01 in1016.3 mb 0.00 in0.0 mm 0.00 in0.0 mm 0.00 in0.0 mm
09:30 AM 44.6°F7.0°C 17.2°F-8.2°C 33% 4.5 mph S7.2 kmh S 10.1 mph16.3 kmh 30.01 in1016.3 mb 0.00 in0.0 mm 0.00 in0.0 mm 0.00 in0.0 mm
09:45 AM 45.3°F7.4°C 17.9°F-7.8°C 33% 4.1 mph S6.6 kmh S 7.4 mph11.9 kmh 30.01 in1016.3 mb 0.00 in0.0 mm 0.00 in0.0 mm 0.00 in0.0 mm
10:00 AM 45.9°F7.7°C 19.0°F-7.2°C 34% 4.2 mph S6.8 kmh S 7.2 mph11.6 kmh 30.01 in1016.3 mb 0.00 in0.0 mm 0.00 in0.0 mm 0.00 in0.0 mm
10:15 AM 46.8°F8.2°C 19.1°F-7.2°C 33% 3.7 mph SSW6.0 kmh SSW 7.8 mph12.6 kmh 30.01 in1016.3 mb 0.00 in0.0 mm 0.00 in0.0 mm 0.00 in0.0 mm
10:30 AM 48.4°F9.1°C 19.8°F-6.8°C 32% 3.9 mph SSW6.3 kmh SSW 7.2 mph11.6 kmh 30.01 in1016.3 mb 0.00 in0.0 mm 0.00 in0.0 mm 0.00 in0.0 mm
10:45 AM 49.8°F9.9°C 20.4°F-6.4°C 31% 4.2 mph SSW6.8 kmh SSW 8.1 mph13.0 kmh 30.01 in1016.3 mb 0.00 in0.0 mm 0.00 in0.0 mm 0.00 in0.0 mm
11:00 AM 50.5°F10.3°C 21.0°F-6.1°C 31% 3.8 mph SW6.1 kmh SW 6.5 mph10.5 kmh 30.01 in1016.3 mb 0.00 in0.0 mm 0.00 in0.0 mm 0.00 in0.0 mm
11:15 AM 52.5°F11.4°C 21.9°F-5.6°C 30% 4.4 mph SSW7.1 kmh SSW 8.5 mph13.7 kmh 30.01 in1016.3 mb 0.00 in0.0 mm 0.00 in0.0 mm 0.00 in0.0 mm
11:30 AM 54.0°F12.2°C 23.2°F-4.9°C 30% 3.6 mph SSW5.8 kmh SSW 6.0 mph9.7 kmh 30.01 in1016.3 mb 0.00 in0.0 mm 0.00 in0.0 mm 0.00 in0.0 mm
11:45 AM 54.7°F12.6°C 23.0°F-5.0°C 29% 4.9 mph SW7.9 kmh SW 9.6 mph15.4 kmh 29.98 in1015.2 mb 0.00 in0.0 mm 0.00 in0.0 mm 0.00 in0.0 mm
12:00 PM 54.7°F12.6°C 22.2°F-5.4°C 28% 4.6 mph SW7.4 kmh SW 7.4 mph11.9 kmh 30.01 in1016.3 mb 0.00 in0.0 mm 0.00 in0.0 mm 0.00 in0.0 mm
12:15 PM 55.4°F13.0°C 23.6°F-4.7°C 29% 4.1 mph SW6.6 kmh SW 8.7 mph14.0 kmh 30.01 in1016.3 mb 0.00 in0.0 mm 0.00 in0.0 mm 0.00 in0.0 mm
12:30 PM 55.4°F13.0°C 23.6°F-4.7°C 29% 5.4 mph SW8.7 kmh SW 8.1 mph13.0 kmh 30.04 in1017.3 mb 0.00 in0.0 mm 0.00 in0.0 mm 0.00 in0.0 mm
12:45 PM 56.7°F13.7°C 24.7°F-4.1°C 29% 4.7 mph SW7.6 kmh SW 8.1 mph13.0 kmh 30.01 in1016.3 mb 0.00 in0.0 mm 0.00 in0.0 mm 0.00 in0.0 mm
01:00 PM 57.0°F13.9°C 25.0°F-3.9°C 29% 5.3 mph SSW8.5 kmh SSW 11.0 mph17.7 kmh 30.01 in1016.3 mb 0.00 in0.0 mm 0.00 in0.0 mm 0.00 in0.0 mm
01:15 PM 56.7°F13.7°C 24.7°F-4.1°C 29% 5.8 mph SSW9.3 kmh SSW 11.0 mph17.7 kmh 30.01 in1016.3 mb 0.00 in0.0 mm 0.00 in0.0 mm 0.00 in0.0 mm
01:30 PM 56.3°F13.5°C 24.4°F-4.2°C 29% 4.9 mph SSW7.9 kmh SSW 9.8 mph15.8 kmh 29.98 in1015.2 mb 0.00 in0.0 mm 0.00 in0.0 mm 0.00 in0.0 mm
01:45 PM 56.3°F13.5°C 24.4°F-4.2°C 29% 6.0 mph SSW9.7 kmh SSW 11.0 mph17.7 kmh 29.98 in1015.2 mb 0.00 in0.0 mm 0.00 in0.0 mm 0.00 in0.0 mm
02:00 PM 56.5°F13.6°C 24.6°F-4.1°C 29% 5.8 mph SW9.3 kmh SW 10.7 mph17.2 kmh 29.98 in1015.2 mb 0.00 in0.0 mm 0.00 in0.0 mm 0.00 in0.0 mm
02:15 PM 57.0°F13.9°C 25.0°F-3.9°C 29% 5.3 mph SW8.5 kmh SW 13.2 mph21.2 kmh 29.98 in1015.2 mb 0.00 in0.0 mm 0.00 in0.0 mm 0.00 in0.0 mm
02:30 PM 56.8°F13.8°C 24.9°F-3.9°C 29% 6.2 mph SW10.0 kmh SW 11.0 mph17.7 kmh 29.98 in1015.2 mb 0.00 in0.0 mm 0.00 in0.0 mm 0.00 in0.0 mm
02:45 PM 56.8°F13.8°C 24.9°F-3.9°C 29% 5.5 mph SW8.9 kmh SW 8.5 mph13.7 kmh 29.95 in1014.2 mb 0.00 in0.0 mm 0.00 in0.0 mm 0.00 in0.0 mm
03:00 PM 56.8°F13.8°C 24.9°F-3.9°C 29% 5.4 mph SW8.7 kmh SW 9.2 mph14.8 kmh 29.95 in1014.2 mb 0.00 in0.0 mm 0.00 in0.0 mm 0.00 in0.0 mm
03:15 PM 56.8°F13.8°C 24.9°F-3.9°C 29% 5.1 mph SSW8.2 kmh SSW 8.9 mph14.3 kmh 29.95 in1014.2 mb 0.00 in0.0 mm 0.00 in0.0 mm 0.00 in0.0 mm
03:30 PM 56.7°F13.7°C 24.7°F-4.1°C 29% 4.8 mph SW7.7 kmh SW 7.8 mph12.6 kmh 29.95 in1014.2 mb 0.00 in0.0 mm 0.00 in0.0 mm 0.00 in0.0 mm
03:45 PM 56.1°F13.4°C 24.3°F-4.3°C 29% 4.5 mph SSW7.2 kmh SSW 8.1 mph13.0 kmh 29.92 in1013.2 mb 0.00 in0.0 mm 0.00 in0.0 mm 0.00 in0.0 mm
04:00 PM 56.1°F13.4°C 24.3°F-4.3°C 29% 4.4 mph SSW7.1 kmh SSW 8.7 mph14.0 kmh 29.95 in1014.2 mb 0.00 in0.0 mm 0.00 in0.0 mm 0.00 in0.0 mm
04:15 PM 56.5°F13.6°C 24.6°F-4.1°C 29% 5.1 mph S8.2 kmh S 8.5 mph13.7 kmh 29.95 in1014.2 mb 0.00 in0.0 mm 0.00 in0.0 mm 0.00 in0.0 mm
04:30 PM 55.9°F13.3°C 24.1°F-4.4°C 29% 4.4 mph SSW7.1 kmh SSW 8.5 mph13.7 kmh 29.95 in1014.2 mb 0.00 in0.0 mm 0.00 in0.0 mm 0.00 in0.0 mm
04:45 PM 55.6°F13.1°C 23.8°F-4.6°C 29% 4.4 mph SSW7.1 kmh SSW 11.9 mph19.2 kmh 29.95 in1014.2 mb 0.00 in0.0 mm 0.00 in0.0 mm 0.00 in0.0 mm
05:00 PM 55.4°F13.0°C 23.6°F-4.7°C 29% 4.1 mph S6.6 kmh S 8.5 mph13.7 kmh 29.95 in1014.2 mb 0.00 in0.0 mm 0.00 in0.0 mm 0.00 in0.0 mm
05:15 PM 55.0°F12.8°C 23.3°F-4.8°C 29% 3.1 mph S5.0 kmh S 6.3 mph10.1 kmh 29.95 in1014.2 mb 0.00 in0.0 mm 0.00 in0.0 mm 0.00 in0.0 mm
05:30 PM 53.8°F12.1°C 23.0°F-5.0°C 30% 2.3 mph SSW3.7 kmh SSW 5.4 mph8.7 kmh 29.95 in1014.2 mb 0.00 in0.0 mm 0.00 in0.0 mm 0.00 in0.0 mm
05:45 PM 52.3°F11.3°C 21.8°F-5.7°C 30% 1.2 mph S1.9 kmh S 3.1 mph5.0 kmh 29.95 in1014.2 mb 0.00 in0.0 mm 0.00 in0.0 mm 0.00 in0.0 mm
06:00 PM 50.5°F10.3°C 21.7°F-5.7°C 32% 0.2 mph S0.3 kmh S 1.6 mph2.6 kmh 29.95 in1014.2 mb 0.00 in0.0 mm 0.00 in0.0 mm 0.00 in0.0 mm
06:15 PM 49.5°F9.7°C 22.2°F-5.4°C 34% 0.2 mph S0.3 kmh S 1.1 mph1.8 kmh 29.95 in1014.2 mb 0.00 in0.0 mm 0.00 in0.0 mm 0.00 in0.0 mm
06:30 PM 48.7°F9.3°C 23.6°F-4.7°C 37% 0.2 mph S0.3 kmh S 2.0 mph3.2 kmh 29.95 in1014.2 mb 0.00 in0.0 mm 0.00 in0.0 mm 0.00 in0.0 mm
06:45 PM 47.1°F8.4°C 22.1°F-5.5°C 37% 0.2 mph SSW0.3 kmh SSW 2.0 mph3.2 kmh 29.95 in1014.2 mb 0.00 in0.0 mm 0.00 in0.0 mm 0.00 in0.0 mm
07:00 PM 46.2°F7.9°C 22.0°F-5.6°C 38% 0.1 mph SSW0.2 kmh SSW 1.1 mph1.8 kmh 29.95 in1014.2 mb 0.00 in0.0 mm 0.00 in0.0 mm 0.00 in0.0 mm
07:15 PM 45.3°F7.4°C 22.4°F-5.3°C 40% Calm Calm -- 29.95 in1014.2 mb 0.00 in0.0 mm 0.00 in0.0 mm 0.00 in0.0 mm
07:30 PM 44.8°F7.1°C 23.1°F-4.9°C 42% Calm Calm -- 29.95 in1014.2 mb 0.00 in0.0 mm 0.00 in0.0 mm 0.00 in0.0 mm
07:45 PM 45.5°F7.5°C 24.8°F-4.0°C 44% Calm Calm -- 29.95 in1014.2 mb 0.00 in0.0 mm 0.00 in0.0 mm 0.00 in0.0 mm
08:00 PM 45.7°F7.6°C 25.5°F-3.6°C 45% Calm Calm -- 29.95 in1014.2 mb 0.00 in0.0 mm 0.00 in0.0 mm 0.00 in0.0 mm
08:15 PM 44.1°F6.7°C 24.1°F-4.4°C 45% Calm Calm -- 29.95 in1014.2 mb 0.00 in0.0 mm 0.00 in0.0 mm 0.00 in0.0 mm
08:30 PM 44.1°F6.7°C 26.1°F-3.3°C 49% Calm Calm -- 29.95 in1014.2 mb 0.00 in0.0 mm 0.00 in0.0 mm 0.00 in0.0 mm
08:45 PM 43.7°F6.5°C 27.7°F-2.4°C 53% 0.3 mph SSE0.5 kmh SSE 1.6 mph2.6 kmh 29.95 in1014.2 mb 0.00 in0.0 mm 0.00 in0.0 mm 0.00 in0.0 mm
09:00 PM 42.6°F5.9°C 25.7°F-3.5°C 51% Calm Calm -- 29.95 in1014.2 mb 0.00 in0.0 mm 0.00 in0.0 mm 0.00 in0.0 mm
09:15 PM 42.4°F5.8°C 26.5°F-3.1°C 53% Calm Calm -- 29.95 in1014.2 mb 0.00 in0.0 mm 0.00 in0.0 mm 0.00 in0.0 mm
09:30 PM 42.6°F5.9°C 28.4°F-2.0°C 57% 0.3 mph SE0.5 kmh SE 1.3 mph2.1 kmh 29.95 in1014.2 mb 0.00 in0.0 mm 0.00 in0.0 mm 0.00 in0.0 mm
09:45 PM 41.9°F5.5°C 27.3°F-2.6°C 56% Calm Calm -- 29.95 in1014.2 mb 0.00 in0.0 mm 0.00 in0.0 mm 0.00 in0.0 mm
10:00 PM 41.7°F5.4°C 28.4°F-2.0°C 59% Calm Calm 0.9 mph1.4 kmh 29.95 in1014.2 mb 0.00 in0.0 mm 0.00 in0.0 mm 0.00 in0.0 mm
10:15 PM 41.4°F5.2°C 28.9°F-1.7°C 61% 0.2 mph SSE0.3 kmh SSE 2.0 mph3.2 kmh 29.95 in1014.2 mb 0.00 in0.0 mm 0.00 in0.0 mm 0.00 in0.0 mm
10:30 PM 41.7°F5.4°C 30.8°F-0.7°C 65% 2.0 mph SSE3.2 kmh SSE 3.4 mph5.5 kmh 29.95 in1014.2 mb 0.00 in0.0 mm 0.00 in0.0 mm 0.00 in0.0 mm
10:45 PM 41.5°F5.3°C 29.5°F-1.4°C 62% 0.6 mph S1.0 kmh S 2.5 mph4.0 kmh 29.95 in1014.2 mb 0.00 in0.0 mm 0.00 in0.0 mm 0.00 in0.0 mm
11:00 PM 41.0°F5.0°C 29.0°F-1.7°C 62% 0.1 mph SSE0.2 kmh SSE 1.6 mph2.6 kmh 29.95 in1014.2 mb 0.00 in0.0 mm 0.00 in0.0 mm 0.00 in0.0 mm
11:15 PM 41.0°F5.0°C 29.4°F-1.4°C 63% 1.7 mph WSW2.7 kmh WSW 4.3 mph6.9 kmh 29.95 in1014.2 mb 0.00 in0.0 mm 0.00 in0.0 mm 0.00 in0.0 mm
11:30 PM 42.1°F5.6°C 33.4°F0.8°C 71% 2.7 mph SSW4.3 kmh SSW 4.0 mph6.4 kmh 29.95 in1014.2 mb 0.00 in0.0 mm 0.00 in0.0 mm 0.00 in0.0 mm
11:45 PM 42.1°F5.6°C 31.9°F-0.1°C 67% 2.1 mph SSW3.4 kmh SSW 3.4 mph5.5 kmh 29.95 in1014.2 mb 0.00 in0.0 mm 0.00 in0.0 mm 0.00 in0.0 mm